Time;durP1;ratioP1;P1;durP2;ratioP2;P2;SDS_P1;SDS_P2;PMS_P1;PMS_P2;Temp;Humidity;BMP_temperature;BMP_pressure;BME280_temperature;BME280_humidity;BME280_pressure;Samples;Min_cycle;Max_cycle;Signal;HPM_P1;HPM_P2
2022/10/04 00:00:36;;;;;;;12.57;5.15;;;;;;;16.65;92.08;101596.25;7380708;19;20015;-63
2022/10/04 00:03:16;;;;;;;9.13;4.82;;;;;;;16.64;92.44;101597.25;7386777;19;20368;-64
2022/10/04 00:05:49;;;;;;;14.30;6.70;;;;;;;16.64;92.35;101594.59;7384978;19;20006;-64
2022/10/04 00:08:41;;;;;;;14.57;6.20;;;;;;;16.66;92.72;101591.72;7386219;19;20046;-65
2022/10/04 00:11:25;;;;;;;10.02;4.53;;;;;;;16.64;92.48;101585.78;7385341;19;20035;-65
2022/10/04 00:13:57;;;;;;;10.25;4.35;;;;;;;16.63;92.58;101587.59;7384473;19;20725;-65
2022/10/04 00:16:32;;;;;;;9.90;4.68;;;;;;;16.62;92.59;101587.78;7382135;19;20022;-64
2022/10/04 00:19:45;;;;;;;12.95;7.13;;;;;;;16.62;92.99;101585.94;7383853;19;20022;-64
2022/10/04 00:22:58;;;;;;;11.20;5.45;;;;;;;16.64;93.22;101580.47;7384986;19;20011;-65
2022/10/04 00:25:35;;;;;;;11.02;5.85;;;;;;;16.66;93.38;101573.97;7380738;19;20054;-65
2022/10/04 00:28:25;;;;;;;9.25;4.93;;;;;;;16.67;93.55;101566.81;7385628;19;20370;-66
2022/10/04 00:31:07;;;;;;;11.45;4.90;;;;;;;16.67;93.53;101570.31;7379833;19;20006;-65
2022/10/04 00:33:40;;;;;;;8.63;4.70;;;;;;;16.68;93.33;101577.28;7384312;19;20014;-63
2022/10/04 00:36:25;;;;;;;13.55;5.47;;;;;;;16.72;93.43;101575.09;7382555;19;20023;-64
2022/10/04 00:39:08;;;;;;;10.13;5.20;;;;;;;16.74;93.39;101559.00;7383825;19;20556;-64
2022/10/04 00:41:51;;;;;;;10.70;4.82;;;;;;;16.74;93.64;101559.81;7381485;19;20052;-66
2022/10/04 00:44:31;;;;;;;8.55;5.35;;;;;;;16.74;93.65;101556.31;7384415;19;20026;-64
2022/10/04 00:47:02;;;;;;;11.43;5.10;;;;;;;16.74;93.62;101551.84;7398048;19;20042;-64
2022/10/04 00:49:36;;;;;;;8.98;5.03;;;;;;;16.73;93.49;101549.34;7395097;19;20014;-63
2022/10/04 00:52:13;;;;;;;9.50;4.90;;;;;;;16.75;93.63;101544.69;7395917;19;20043;-64
2022/10/04 00:54:45;;;;;;;10.20;4.75;;;;;;;16.75;93.61;101542.03;7397839;19;20014;-64
2022/10/04 00:57:20;;;;;;;13.50;5.93;;;;;;;16.76;93.55;101536.53;7397452;19;20314;-64
2022/10/04 00:59:51;;;;;;;8.75;4.50;;;;;;;16.78;94.21;101536.38;7396281;19;20014;-64
2022/10/04 01:02:27;;;;;;;12.45;5.80;;;;;;;16.77;94.20;101530.22;7392627;19;20026;-64
2022/10/04 01:05:06;;;;;;;10.15;4.65;;;;;;;16.79;94.38;101528.22;7396437;19;20018;-65
2022/10/04 01:07:38;;;;;;;10.02;4.47;;;;;;;16.80;94.38;101537.03;7396742;19;20051;-63
2022/10/04 01:10:40;;;;;;;24.25;10.90;;;;;;;16.78;94.34;101531.88;7397652;19;20022;-64
2022/10/04 01:13:22;;;;;;;8.82;4.70;;;;;;;16.79;94.99;101517.59;7396997;19;20371;-63
2022/10/04 01:16:05;;;;;;;10.02;4.18;;;;;;;16.80;94.75;101519.25;7394018;19;20054;-64
2022/10/04 01:18:34;;;;;;;9.07;3.83;;;;;;;16.81;94.68;101506.78;7397936;19;20041;-63
2022/10/04 01:21:19;;;;;;;6.57;3.30;;;;;;;16.81;94.45;101506.78;7398991;19;20366;-64
2022/10/04 01:23:49;;;;;;;4.82;3.00;;;;;;;16.80;94.63;101495.31;7394679;19;20035;-64
2022/10/04 01:26:36;;;;;;;6.65;2.88;;;;;;;16.82;94.30;101503.09;7396579;19;20051;-65
2022/10/04 01:29:27;;;;;;;7.05;3.08;;;;;;;16.83;94.63;101496.78;7397104;19;20350;-63
2022/10/04 01:31:57;;;;;;;7.13;3.30;;;;;;;16.85;94.90;101492.97;7396885;19;20053;-64
2022/10/04 01:34:26;;;;;;;6.90;3.40;;;;;;;16.87;94.86;101479.47;7396063;19;20014;-64
2022/10/04 01:36:58;;;;;;;8.07;2.42;;;;;;;16.89;94.76;101480.13;7395423;19;20139;-64
2022/10/04 01:39:26;;;;;;;7.35;2.70;;;;;;;16.91;94.74;101480.78;7398092;19;20014;-64
2022/10/04 01:42:05;;;;;;;5.93;2.60;;;;;;;16.92;94.57;101480.59;7394948;19;20010;-64
2022/10/04 01:44:57;;;;;;;14.80;9.10;;;;;;;16.95;94.64;101474.13;7397678;19;20051;-64
2022/10/04 01:47:43;;;;;;;6.95;2.72;;;;;;;16.98;95.27;101474.56;7396194;19;20019;-65
2022/10/04 01:50:19;;;;;;;6.28;1.83;;;;;;;16.97;95.11;101466.75;7394983;19;20007;-64
2022/10/04 01:52:55;;;;;;;4.78;2.25;;;;;;;16.97;94.94;101454.31;7396920;19;20010;-63
2022/10/04 01:55:31;;;;;;;12.70;4.50;;;;;;;17.00;95.17;101461.94;7389819;19;20011;-63
2022/10/04 01:58:08;;;;;;;8.77;3.75;;;;;;;17.03;95.19;101456.25;7390513;19;20038;-66
2022/10/04 02:00:42;;;;;;;7.82;2.53;;;;;;;17.05;94.88;101453.41;7387570;19;20459;-64
2022/10/04 02:03:28;;;;;;;7.05;3.10;;;;;;;17.07;94.97;101462.84;7389923;19;20018;-64
2022/10/04 02:06:00;;;;;;;7.13;3.03;;;;;;;17.09;94.84;101449.38;7388828;19;20014;-63
2022/10/04 02:08:31;;;;;;;28.88;11.50;;;;;;;17.11;94.42;101444.72;7388237;19;20368;-64
2022/10/04 02:11:00;;;;;;;7.47;2.63;;;;;;;17.14;95.29;101448.84;7388292;19;20135;-64
2022/10/04 02:13:34;;;;;;;15.38;8.15;;;;;;;17.15;95.35;101442.53;7389272;19;20022;-63
2022/10/04 02:16:03;;;;;;;10.52;3.47;;;;;;;17.17;95.88;101435.19;7386534;19;20014;-64
2022/10/04 02:18:33;;;;;;;6.38;3.67;;;;;;;17.16;95.55;101433.53;7388780;19;20481;-64
2022/10/04 02:21:00;;;;;;;7.15;3.08;;;;;;;17.19;95.48;101427.84;7388477;19;20035;-65
2022/10/04 02:23:27;;;;;;;7.10;3.17;;;;;;;17.20;95.47;101424.19;7388291;19;20283;-64
2022/10/04 02:25:54;;;;;;;21.60;7.43;;;;;;;17.20;94.98;101409.06;7385787;19;20022;-64
2022/10/04 02:28:22;;;;;;;15.48;7.13;;;;;;;17.21;95.08;101405.41;7390404;19;20015;-64
2022/10/04 02:33:42;;;;;;;23.75;10.95;;;;;;;17.23;95.60;101394.56;7387290;19;20043;-62
2022/10/04 02:36:10;;;;;;;7.35;3.75;;;;;;;17.25;95.84;101390.72;7387529;19;20021;-65
2022/10/04 02:38:46;;;;;;;34.05;11.93;;;;;;;17.25;95.22;101380.09;7389316;19;20404;-64
2022/10/04 02:41:30;;;;;;;8.20;3.75;;;;;;;17.25;95.47;101374.75;7385367;19;20025;-65
2022/10/04 02:44:04;;;;;;;7.18;2.85;;;;;;;17.25;95.25;101384.56;7383196;19;20014;-64
2022/10/04 02:46:56;;;;;;;6.20;2.50;;;;;;;17.25;94.90;101389.91;7382446;19;20691;-64
2022/10/04 02:49:32;;;;;;;9.30;3.33;;;;;;;17.22;95.22;101383.09;7379865;19;20732;-64
2022/10/04 02:52:02;;;;;;;8.27;3.33;;;;;;;17.24;95.32;101377.59;7384804;19;20030;-62
2022/10/04 02:54:44;;;;;;;10.15;2.50;;;;;;;17.23;95.30;101379.44;7381437;19;20052;-65
2022/10/04 02:57:21;;;;;;;3.13;1.80;;;;;;;17.22;94.87;101375.09;7381469;19;20039;-65
2022/10/04 02:59:50;;;;;;;9.93;2.83;;;;;;;17.21;94.95;101377.97;7385111;19;20010;-64
2022/10/04 03:02:35;;;;;;;5.43;2.35;;;;;;;17.20;94.95;101374.47;7387297;19;20014;-64
2022/10/04 03:05:12;;;;;;;12.23;3.47;;;;;;;17.20;95.21;101374.47;7386586;19;20026;-65
2022/10/04 03:07:39;;;;;;;6.72;3.10;;;;;;;17.23;95.67;101378.59;7385879;19;20010;-65
2022/10/04 03:10:12;;;;;;;6.97;3.05;;;;;;;17.24;95.48;101367.78;7382195;19;20125;-65
2022/10/04 03:12:40;;;;;;;7.40;2.35;;;;;;;17.22;95.12;101359.16;7388903;19;20018;-64
2022/10/04 03:15:09;;;;;;;3.92;2.17;;;;;;;17.20;95.04;101361.19;7387013;19;20042;-64
2022/10/04 03:17:40;;;;;;;8.00;2.85;;;;;;;17.20;95.36;101361.19;7386761;19;20141;-64
2022/10/04 03:20:13;;;;;;;6.40;2.53;;;;;;;17.22;95.80;101353.81;7385586;19;20042;-64
2022/10/04 03:22:44;;;;;;;4.88;2.08;;;;;;;17.23;95.34;101347.50;7386229;19;20014;-64
2022/10/04 03:25:20;;;;;;;6.38;2.22;;;;;;;17.23;95.25;101350.16;7386326;19;20014;-64
2022/10/04 03:27:50;;;;;;;6.80;2.53;;;;;;;17.21;95.01;101340.72;7385470;19;20430;-63
2022/10/04 03:30:20;;;;;;;6.70;2.53;;;;;;;17.19;95.23;101340.09;7383956;19;20134;-63
2022/10/04 03:32:49;;;;;;;7.10;2.75;;;;;;;17.21;95.74;101332.75;7386548;19;20038;-64
2022/10/04 03:35:28;;;;;;;6.35;2.60;;;;;;;17.21;95.65;101322.94;7385422;19;20447;-63
2022/10/04 03:37:56;;;;;;;7.88;3.80;;;;;;;17.21;95.67;101325.59;7388225;19;20014;-64
2022/10/04 03:40:32;;;;;;;7.22;3.25;;;;;;;17.23;96.10;101325.41;7384841;19;20043;-65
2022/10/04 03:43:27;;;;;;;10.10;2.85;;;;;;;17.24;95.61;101322.56;7385173;19;20510;-64
2022/10/04 03:46:09;;;;;;;7.30;3.15;;;;;;;17.25;95.89;101320.72;7384728;19;20382;-63
2022/10/04 03:48:43;;;;;;;5.03;2.78;;;;;;;17.26;96.11;101317.06;7384342;19;20019;-64
2022/10/04 03:51:16;;;;;;;7.00;3.35;;;;;;;17.26;95.80;101320.56;7387230;19;20012;-64
2022/10/04 03:54:05;;;;;;;;;;;;;;;17.28;95.92;101320.34;7383342;19;20134;-64
2022/10/04 03:56:35;;;;;;;12.50;4.20;;;;;;;17.25;95.97;101323.41;7384183;19;19922;-63
2022/10/04 03:59:09;;;;;;;7.80;3.85;;;;;;;17.24;95.83;101317.25;7384312;19;20099;-64
2022/10/04 04:01:40;;;;;;;8.73;2.83;;;;;;;17.22;96.07;101324.56;7385890;19;20021;-63
2022/10/04 04:04:30;;;;;;;4.20;2.58;;;;;;;17.22;96.08;101324.56;7383221;19;20301;-63
2022/10/04 04:07:31;;;;;;;7.60;3.30;;;;;;;17.24;96.14;101319.91;7385163;19;20014;-64
2022/10/04 04:10:05;;;;;;;5.93;3.05;;;;;;;17.25;95.96;101318.06;7380585;19;20014;-64
2022/10/04 04:12:59;;;;;;;7.13;2.90;;;;;;;17.27;95.85;101310.75;7385356;19;20014;-64
2022/10/04 04:15:32;;;;;;;7.82;4.18;;;;;;;17.26;95.95;101307.25;7383114;19;20045;-64
2022/10/04 04:18:06;;;;;;;6.10;3.28;;;;;;;17.28;96.27;101301.72;7384765;19;20486;-64
2022/10/04 04:20:37;;;;;;;7.60;3.85;;;;;;;17.29;95.98;101298.06;7383010;19;20510;-63
2022/10/04 04:23:13;;;;;;;9.38;4.47;;;;;;;17.30;96.28;101291.75;7384396;19;20014;-65
2022/10/04 04:25:45;;;;;;;10.77;3.78;;;;;;;17.31;96.37;101291.56;7383086;19;20546;-63
2022/10/04 04:28:35;;;;;;;8.65;3.28;;;;;;;17.30;96.22;101289.91;7385572;19;20022;-65
2022/10/04 04:31:11;;;;;;;8.15;3.90;;;;;;;17.31;96.33;101296.88;7382016;19;20090;-64
2022/10/04 04:34:14;;;;;;;7.30;3.35;;;;;;;17.29;96.00;101301.56;7383055;19;20046;-64
2022/10/04 04:36:41;;;;;;;10.98;2.70;;;;;;;17.29;95.79;101306.03;7383494;19;20014;-64
2022/10/04 04:39:39;;;;;;;6.55;2.65;;;;;;;17.28;96.12;101307.88;7384128;19;20446;-64
2022/10/04 04:42:09;;;;;;;4.95;2.83;;;;;;;17.26;96.02;101317.06;7383739;19;20018;-63
2022/10/04 04:44:47;;;;;;;12.73;6.57;;;;;;;17.24;96.06;101319.06;7381643;19;20014;-64
2022/10/04 04:47:37;;;;;;;6.78;3.53;;;;;;;17.26;96.65;101315.25;7383334;19;20018;-67
2022/10/04 04:50:17;;;;;;;5.88;2.95;;;;;;;17.27;96.72;101322.19;7384554;19;20003;-64
2022/10/04 04:52:49;;;;;;;5.30;2.55;;;;;;;17.28;96.58;101323.84;7383790;19;20018;-64
2022/10/04 04:55:39;;;;;;;3.30;2.42;;;;;;;17.29;96.44;101319.34;7381871;19;20110;-64
2022/10/04 04:58:35;;;;;;;19.30;9.63;;;;;;;17.28;96.36;101315.03;7385281;19;20011;-64
2022/10/04 05:01:07;;;;;;;7.85;3.03;;;;;;;17.30;96.96;101305.03;7380253;19;20014;-68
2022/10/04 05:03:34;;;;;;;5.50;2.30;;;;;;;17.29;96.41;101303.38;7382404;19;20018;-64
2022/10/04 05:06:06;;;;;;;7.53;2.03;;;;;;;17.27;95.89;101308.88;7383700;19;20674;-64
2022/10/04 05:08:34;;;;;;;3.83;1.20;;;;;;;17.23;95.28;101307.59;7382961;19;20134;-65
2022/10/04 05:11:07;;;;;;;5.13;2.00;;;;;;;17.21;94.62;101293.69;7383276;19;20010;-64
2022/10/04 05:13:33;;;;;;;3.92;1.40;;;;;;;17.21;94.73;101292.84;7383129;19;20424;-64
2022/10/04 05:16:01;;;;;;;2.95;1.10;;;;;;;17.22;94.38;101297.97;7382099;19;20039;-65
2022/10/04 05:18:32;;;;;;;10.65;3.90;;;;;;;17.23;93.98;101290.81;7381942;19;20029;-64
2022/10/04 05:21:07;;;;;;;2.08;1.17;;;;;;;17.24;94.03;101292.47;7383659;19;20018;-65
2022/10/04 05:23:34;;;;;;;2.33;0.88;;;;;;;17.25;93.34;101286.16;7382220;19;20007;-65
2022/10/04 05:26:04;;;;;;;3.47;1.77;;;;;;;17.24;92.55;101293.31;7383121;19;20030;-65
2022/10/04 05:28:32;;;;;;;3.80;1.10;;;;;;;17.26;93.04;101293.97;7384003;19;20019;-64
2022/10/04 05:31:32;;;;;;;14.70;5.82;;;;;;;17.28;92.83;101289.25;7384114;19;20532;-63
2022/10/04 05:34:14;;;;;;;5.25;0.82;;;;;;;17.30;92.05;101289.09;7388738;19;20483;-64
2022/10/04 05:36:44;;;;;;;3.92;1.73;;;;;;;17.29;91.76;101290.09;7387133;19;20048;-63
2022/10/04 05:39:47;;;;;;;2.67;0.80;;;;;;;17.29;91.56;101293.56;7389088;19;20021;-64
2022/10/04 05:42:25;;;;;;;3.13;0.70;;;;;;;17.27;91.20;101289.47;7385221;19;20018;-64
2022/10/04 05:44:56;;;;;;;1.67;0.68;;;;;;;17.22;90.35;101294.50;7387708;19;20038;-64
2022/10/04 05:47:29;;;;;;;4.03;0.70;;;;;;;17.17;90.74;101296.91;7385743;19;20014;-65
2022/10/04 05:49:59;;;;;;;7.18;3.47;;;;;;;17.15;90.73;101291.75;7389696;19;20572;-64
2022/10/04 05:52:35;;;;;;;3.90;0.60;;;;;;;17.15;91.08;101297.06;7390217;19;20011;-64
2022/10/04 05:55:10;;;;;;;4.72;0.70;;;;;;;17.17;90.88;101296.91;7390493;19;20043;-65
2022/10/04 05:57:54;;;;;;;17.52;7.40;;;;;;;17.17;91.65;101291.59;7388720;19;20039;-64
2022/10/04 06:00:31;;;;;;;2.92;0.60;;;;;;;17.14;91.19;101289.28;7387822;19;20022;-64
2022/10/04 06:03:16;;;;;;;6.45;2.78;;;;;;;17.16;90.65;101292.59;7388257;19;20711;-64
2022/10/04 06:05:52;;;;;;;2.63;0.60;;;;;;;17.17;90.69;101292.38;7387886;19;20018;-63
2022/10/04 06:08:32;;;;;;;2.53;0.75;;;;;;;17.14;89.50;101291.94;7389514;19;20022;-64
2022/10/04 06:11:14;;;;;;;10.75;4.38;;;;;;;17.10;89.93;101283.50;7387086;19;20356;-64
2022/10/04 06:14:04;;;;;;;5.22;0.75;;;;;;;17.11;89.29;101293.13;7388123;19;20019;-64
2022/10/04 06:17:09;;;;;;;1.75;0.43;;;;;;;17.07;89.10;101295.31;7389016;19;20014;-64
2022/10/04 06:20:21;;;;;;;4.20;0.57;;;;;;;17.04;88.63;101294.88;7386576;19;20587;-64
2022/10/04 06:22:56;;;;;;;2.45;0.60;;;;;;;17.00;88.57;101305.06;7385494;19;20034;-64
2022/10/04 06:25:28;;;;;;;17.38;8.95;;;;;;;16.99;89.02;101313.22;7387770;19;20038;-64
2022/10/04 06:28:08;;;;;;;3.38;0.52;;;;;;;16.99;89.40;101299.91;7389743;19;20014;-64
2022/10/04 06:31:07;;;;;;;3.05;0.50;;;;;;;16.99;88.61;101307.88;7384598;19;20046;-64
2022/10/04 06:33:49;;;;;;;3.60;0.40;;;;;;;16.96;88.53;101298.47;7386981;19;20038;-64
2022/10/04 06:36:16;;;;;;;2.85;0.40;;;;;;;16.92;88.25;101297.16;7387510;19;20030;-65
2022/10/04 06:39:11;;;;;;;3.53;0.57;;;;;;;16.92;88.12;101298.97;7385994;19;20800;-65
2022/10/04 06:42:03;;;;;;;2.55;0.50;;;;;;;16.91;88.60;101303.50;7383233;19;20048;-65
2022/10/04 06:44:54;;;;;;;2.70;0.43;;;;;;;16.96;88.52;101311.75;7385174;19;20014;-65
2022/10/04 06:48:00;;;;;;;1.23;0.50;;;;;;;17.02;88.21;101302.19;7385938;19;20026;-67
2022/10/04 06:50:50;;;;;;;3.35;0.77;;;;;;;17.06;88.47;101304.34;7384616;19;20588;-67
2022/10/04 06:53:29;;;;;;;15.15;9.27;;;;;;;17.05;88.47;101308.00;7386775;19;20046;-68
2022/10/04 06:56:16;;;;;;;4.35;0.80;;;;;;;17.10;90.37;101308.28;7384657;19;20014;-67
2022/10/04 06:59:05;;;;;;;4.00;1.23;;;;;;;17.13;88.77;101301.75;7385789;19;20425;-68
2022/10/04 07:01:37;;;;;;;7.40;1.02;;;;;;;17.14;87.98;101303.41;7383540;19;20042;-66
2022/10/04 07:04:26;;;;;;;3.47;1.00;;;;;;;17.15;87.12;101304.22;7387489;19;20050;-67
2022/10/04 07:07:22;;;;;;;1.92;0.30;;;;;;;17.14;86.26;101292.75;7388584;19;20421;-67
2022/10/04 07:10:11;;;;;;;1.95;0.50;;;;;;;17.16;86.05;101296.06;7386604;19;20030;-68
2022/10/04 07:12:43;;;;;;;2.83;1.13;;;;;;;17.17;85.61;101294.25;7386169;19;20020;-70
2022/10/04 07:15:23;;;;;;;3.80;0.40;;;;;;;17.17;84.91;101281.75;7387522;19;20045;-68
2022/10/04 07:17:54;;;;;;;3.05;0.80;;;;;;;17.16;84.62;101295.25;7386437;19;20329;-67
2022/10/04 07:20:32;;;;;;;3.22;0.50;;;;;;;17.18;84.99;101287.88;7386172;19;20022;-68
2022/10/04 07:23:05;;;;;;;1.10;0.30;;;;;;;17.20;84.27;101286.72;7387569;19;20034;-66
2022/10/04 07:25:45;;;;;;;4.53;0.38;;;;;;;17.20;83.88;101286.72;7386755;19;20348;-66
2022/10/04 07:31:12;;;;;;;3.17;0.43;;;;;;;17.29;84.27;101293.56;7386032;19;20036;-67
2022/10/04 07:33:50;;;;;;;1.38;0.38;;;;;;;17.32;83.89;101301.16;7384291;19;20015;-66
2022/10/04 07:36:25;;;;;;;2.13;0.40;;;;;;;17.35;83.36;101310.63;7386501;19;20011;-67
2022/10/04 07:39:09;;;;;;;3.35;0.55;;;;;;;17.36;83.17;101312.28;7383469;19;20014;-67
2022/10/04 07:42:06;;;;;;;3.60;0.40;;;;;;;17.37;83.32;101309.44;7384207;19;20050;-67
2022/10/04 07:44:40;;;;;;;2.72;0.30;;;;;;;17.40;82.87;101314.41;7383309;19;20039;-66
2022/10/04 07:47:24;;;;;;;1.17;0.30;;;;;;;17.43;83.16;101321.16;7383709;19;20134;-68
2022/10/04 07:49:53;;;;;;;1.65;0.60;;;;;;;17.44;82.59;101317.50;7384748;19;20320;-68
2022/10/04 07:52:49;;;;;;;0.82;0.30;;;;;;;17.45;82.75;101324.47;7386219;19;20046;-67
2022/10/04 07:55:39;;;;;;;2.40;0.40;;;;;;;17.47;82.38;101311.81;7382491;19;20041;-67
2022/10/04 07:58:28;;;;;;;3.65;0.30;;;;;;;17.48;81.81;101321.44;7384932;19;20014;-67
2022/10/04 08:01:09;;;;;;;3.00;0.65;;;;;;;17.49;81.52;101317.78;7383491;19;20011;-67
2022/10/04 08:04:05;;;;;;;2.55;0.43;;;;;;;17.52;82.31;101328.06;7384767;19;20010;-68
2022/10/04 08:06:44;;;;;;;3.83;0.50;;;;;;;17.48;81.39;101335.56;7386701;19;20034;-66
2022/10/04 08:09:24;;;;;;;2.63;0.30;;;;;;;17.50;81.53;101332.72;7384786;19;20093;-66
2022/10/04 08:12:21;;;;;;;0.90;0.45;;;;;;;17.53;82.42;101327.84;7382431;19;20029;-67
2022/10/04 08:15:24;;;;;;;1.70;0.30;;;;;;;17.57;81.86;101328.31;7384994;19;20022;-67
2022/10/04 08:18:14;;;;;;;5.57;2.60;;;;;;;17.59;82.03;101320.13;7384815;19;20344;-66
2022/10/04 08:20:58;;;;;;;3.45;0.50;;;;;;;17.60;82.82;101309.34;7383666;19;20392;-67
2022/10/04 08:23:32;;;;;;;2.45;1.38;;;;;;;17.64;81.86;101307.94;7383923;19;20015;-71
2022/10/04 08:26:14;;;;;;;2.28;1.02;;;;;;;17.69;82.49;101292.25;7384722;19;20395;-67
2022/10/04 08:32:31;;;;;;;3.10;0.30;;;;;;;17.77;81.61;101294.81;7382772;19;20326;-66
2022/10/04 08:35:15;;;;;;;3.08;0.30;;;;;;;17.79;81.13;101289.28;7385494;19;20022;-66
2022/10/04 08:38:10;;;;;;;4.07;0.30;;;;;;;17.82;80.88;101283.59;7383042;19;20106;-67
2022/10/04 08:40:48;;;;;;;3.92;0.45;;;;;;;17.85;80.23;101284.03;7377913;19;20019;-67
2022/10/04 08:43:33;;;;;;;3.35;0.20;;;;;;;17.84;79.49;101282.38;7382457;19;20023;-67
2022/10/04 08:46:21;;;;;;;5.85;0.25;;;;;;;17.89;79.88;101289.78;7382200;19;20015;-67
2022/10/04 08:49:11;;;;;;;1.83;0.25;;;;;;;17.88;78.87;101290.81;7382180;19;20034;-67
2022/10/04 08:52:15;;;;;;;2.25;0.30;;;;;;;17.90;79.20;101284.28;7384772;19;20034;-67
2022/10/04 08:54:55;;;;;;;1.75;0.20;;;;;;;17.90;78.94;101288.78;7383268;19;20014;-67
2022/10/04 08:57:56;;;;;;;1.58;0.30;;;;;;;17.91;79.28;101290.44;7382310;19;20479;-66
2022/10/04 09:01:17;;;;;;;0.38;0.13;;;;;;;17.88;78.45;101296.97;7381942;19;20015;-69
2022/10/04 09:04:21;;;;;;;1.95;0.20;;;;;;;17.83;78.50;101294.03;7377108;19;20364;-67
2022/10/04 09:07:19;;;;;;;0.73;0.20;;;;;;;17.76;78.55;101295.00;7382095;19;20588;-67
2022/10/04 09:10:25;;;;;;;3.67;0.40;;;;;;;17.78;79.75;101293.78;7388199;19;20185;-67
2022/10/04 09:13:23;;;;;;;2.67;0.20;;;;;;;17.82;80.65;101288.91;7390366;19;20014;-67
2022/10/04 09:16:05;;;;;;;3.08;0.70;;;;;;;17.85;80.24;101289.34;7384842;19;20038;-67
2022/10/04 09:18:44;;;;;;;0.68;0.20;;;;;;;17.81;78.83;101280.09;7388020;19;20022;-67
2022/10/04 09:21:18;;;;;;;4.28;0.20;;;;;;;17.82;79.81;101281.75;7391853;19;20276;-67
2022/10/04 09:24:24;;;;;;;4.57;0.20;;;;;;;17.85;79.87;101285.88;7389729;19;20501;-67
2022/10/04 09:27:22;;;;;;;2.35;0.20;;;;;;;17.87;79.83;101286.50;7389509;19;20022;-68
2022/10/04 09:31:06;;;;;;;1.65;0.20;;;;;;;17.91;78.92;101301.91;7388616;19;20074;-67
2022/10/04 09:33:58;;;;;;;1.20;0.20;;;;;;;17.91;79.13;101299.25;7389969;19;20018;-68
2022/10/04 09:37:01;;;;;;;3.80;0.20;;;;;;;17.86;78.92;101304.31;7391853;19;20019;-67
2022/10/04 09:39:42;;;;;;;1.25;0.30;;;;;;;17.86;79.84;101304.31;7387791;19;20109;-67
2022/10/04 09:42:30;;;;;;;3.08;0.20;;;;;;;17.87;79.67;101302.50;7390482;19;20035;-68
2022/10/04 09:45:13;;;;;;;1.17;0.30;;;;;;;17.88;79.44;101304.13;7389639;19;20015;-67
2022/10/04 09:48:19;;;;;;;2.10;0.17;;;;;;;17.87;79.46;101313.13;7388727;19;20014;-68
2022/10/04 09:50:54;;;;;;;2.60;0.40;;;;;;;17.87;79.68;101313.13;7386841;19;20025;-67
2022/10/04 09:53:33;;;;;;;2.65;0.40;;;;;;;17.87;79.23;101311.31;7390955;19;20010;-67
2022/10/04 09:56:17;;;;;;;2.97;0.65;;;;;;;17.89;79.49;101297.78;7386397;19;20023;-67
2022/10/04 09:59:17;;;;;;;3.65;0.30;;;;;;;17.90;79.60;101294.94;7386328;19;20380;-67
2022/10/04 10:01:53;;;;;;;2.97;2.17;;;;;;;17.93;79.94;101288.41;7387762;19;20011;-67
2022/10/04 10:04:58;;;;;;;2.55;0.50;;;;;;;17.97;80.10;101281.69;7387546;19;20027;-67
2022/10/04 10:07:51;;;;;;;2.10;0.43;;;;;;;18.01;79.76;101282.97;7389976;19;20011;-67
2022/10/04 10:14:10;;;;;;;2.13;0.40;;;;;;;18.06;79.47;101299.19;7387183;19;20022;-68
2022/10/04 10:17:14;;;;;;;2.13;0.50;;;;;;;18.08;79.17;101297.16;7386861;19;20022;-67
2022/10/04 10:19:56;;;;;;;1.65;0.60;;;;;;;18.11;79.57;101298.63;7383827;19;20014;-66
2022/10/04 10:22:59;;;;;;;5.00;0.73;;;;;;;18.12;78.78;101293.13;7387797;19;20007;-67
2022/10/04 10:26:03;;;;;;;2.23;0.50;;;;;;;18.12;78.54;101278.97;7383616;19;20018;-68
2022/10/04 10:28:46;;;;;;;3.38;0.55;;;;;;;18.13;78.81;101265.47;7388907;19;20381;-67
2022/10/04 10:31:23;;;;;;;;;;;;;;;18.18;79.04;101260.41;7387221;19;20317;-66
2022/10/04 10:34:08;;;;;;;3.30;1.08;;;;;;;18.20;79.12;101262.84;7384759;19;20639;-67
2022/10/04 10:36:43;;;;;;;1.67;0.60;;;;;;;18.26;79.34;101270.06;7388370;19;20011;-68
2022/10/04 10:39:25;;;;;;;1.13;0.40;;;;;;;18.35;81.09;101271.59;7383073;19;20030;-66
2022/10/04 10:42:20;;;;;;;7.37;1.80;;;;;;;18.41;81.49;101254.81;7384518;19;20025;-67
2022/10/04 10:44:55;;;;;;;5.07;0.65;;;;;;;18.46;80.89;101257.72;7387342;19;20042;-68
2022/10/04 10:47:59;;;;;;;1.42;0.40;;;;;;;18.49;78.90;101265.34;7388133;19;20025;-68
2022/10/04 10:51:01;;;;;;;3.75;0.30;;;;;;;18.51;78.40;101270.47;7385740;19;20022;-67
2022/10/04 10:54:05;;;;;;;4.05;2.45;;;;;;;18.60;80.00;101275.50;7386044;19;20019;-67
2022/10/04 10:56:59;;;;;;;2.75;0.50;;;;;;;18.58;78.25;101266.88;7386471;19;20010;-68
2022/10/04 11:00:12;;;;;;;4.80;0.38;;;;;;;18.55;78.04;101267.25;7384136;19;20038;-68
2022/10/04 11:02:57;;;;;;;0.80;0.30;;;;;;;18.55;78.00;101274.44;7384022;19;20011;-67
2022/10/04 11:05:41;;;;;;;0.80;0.30;;;;;;;18.52;77.92;101277.47;7384112;19;20255;-66
2022/10/04 11:08:47;;;;;;;1.48;0.22;;;;;;;18.51;77.70;101284.63;7388313;19;20011;-66
2022/10/04 11:11:32;;;;;;;2.42;0.22;;;;;;;18.51;78.70;101275.81;7385150;19;20030;-67
2022/10/04 11:14:11;;;;;;;3.33;0.90;;;;;;;18.47;78.01;101274.56;7386031;19;20014;-67
2022/10/04 11:16:56;;;;;;;3.10;0.30;;;;;;;18.43;78.33;101278.63;7385903;19;20047;-66
2022/10/04 11:19:47;;;;;;;4.50;0.90;;;;;;;18.46;79.56;101268.41;7381531;19;20015;-69
2022/10/04 11:22:23;;;;;;;3.47;0.80;;;;;;;18.48;80.20;101269.03;7384787;19;20014;-66
2022/10/04 11:25:17;;;;;;;2.35;0.68;;;;;;;18.48;79.72;101262.88;7387281;19;20134;-67
2022/10/04 11:27:48;;;;;;;1.27;0.47;;;;;;;18.49;80.24;101251.22;7384769;19;20397;-67
2022/10/04 11:30:25;;;;;;;2.13;1.05;;;;;;;18.52;79.53;101250.81;7380323;19;20440;-69
2022/10/04 11:32:58;;;;;;;1.65;0.60;;;;;;;18.55;79.45;101242.44;7385981;19;20015;-67
2022/10/04 11:35:35;;;;;;;2.55;0.70;;;;;;;18.56;79.24;101238.75;7385876;19;20680;-66
2022/10/04 11:38:21;;;;;;;2.45;0.30;;;;;;;18.60;78.60;101243.50;7385770;19;20020;-68
2022/10/04 11:41:15;;;;;;;3.00;1.02;;;;;;;18.60;78.73;101238.19;7383471;19;20014;-66
2022/10/04 11:44:16;;;;;;;2.15;0.30;;;;;;;18.61;78.20;101234.50;7381874;19;20014;-68
2022/10/04 11:46:55;;;;;;;1.58;0.50;;;;;;;18.65;79.03;101230.41;7385023;19;20566;-67
2022/10/04 11:49:34;;;;;;;1.63;0.45;;;;;;;18.68;78.42;101216.72;7384741;19;20015;-68
2022/10/04 11:52:39;;;;;;;1.10;0.30;;;;;;;18.74;78.47;101220.44;7385280;19;20018;-68
2022/10/04 11:55:25;;;;;;;4.45;0.40;;;;;;;18.78;78.04;101222.50;7384625;19;20344;-67
2022/10/04 11:58:24;;;;;;;4.65;0.45;;;;;;;18.86;78.46;101226.03;7384870;19;20526;-68
2022/10/04 12:01:00;;;;;;;1.52;0.50;;;;;;;18.84;77.21;101228.09;7381970;19;20014;-67
2022/10/04 12:03:41;;;;;;;4.35;0.47;;;;;;;18.84;77.66;101236.09;7383876;19;20317;-67
2022/10/04 12:06:38;;;;;;;3.63;1.05;;;;;;;18.84;78.04;101228.91;7383849;19;20295;-65
2022/10/04 12:09:24;;;;;;;2.97;1.02;;;;;;;18.84;77.62;101234.25;7384329;19;20025;-68
2022/10/04 12:12:36;;;;;;;2.83;0.50;;;;;;;18.83;77.21;101237.91;7381192;19;20491;-67
2022/10/04 12:15:26;;;;;;;0.95;0.40;;;;;;;18.81;77.45;101245.28;7383816;19;20014;-67
2022/10/04 12:18:25;;;;;;;1.15;0.22;;;;;;;18.80;77.98;101254.28;7382879;19;20022;-67
2022/10/04 12:20:56;;;;;;;1.88;0.30;;;;;;;18.78;78.34;101254.50;7383737;19;20018;-66
2022/10/04 12:24:14;;;;;;;1.58;0.25;;;;;;;18.74;77.78;101242.56;7383784;19;20050;-67
2022/10/04 12:26:54;;;;;;;1.85;0.35;;;;;;;18.74;78.95;101239.91;7381333;19;20002;-67
2022/10/04 12:29:35;;;;;;;2.53;0.38;;;;;;;18.76;79.11;101237.03;7383893;19;20015;-67
2022/10/04 12:32:07;;;;;;;3.92;0.98;;;;;;;18.78;79.71;101235.03;7383006;19;20018;-67
2022/10/04 12:34:54;;;;;;;;;;;;;;;18.80;79.83;101232.97;7383557;19;20062;-67
2022/10/04 12:37:31;;;;;;;1.85;0.50;;;;;;;18.79;79.71;101231.34;7383399;19;20441;-67
2022/10/04 12:40:21;;;;;;;1.02;0.25;;;;;;;18.79;78.86;101236.69;7382298;19;20039;-67
2022/10/04 12:43:04;;;;;;;;;;;;;;;18.79;79.39;101228.69;7382713;19;20486;-68
2022/10/04 12:45:41;;;;;;;1.30;0.25;;;;;;;18.75;78.35;101220.22;7382261;19;19919;-66
2022/10/04 12:48:42;;;;;;;2.08;0.40;;;;;;;18.73;78.28;101224.94;7359563;19;20669;-68